Cancun, Mexico

4:53 PM EST on August 27, 2016 (GMT -0500)
Paseo del mar Residencial Campestre Cancun | | Change Station

Elev 26 ft 21.10 °N, 86.85 °W | Updated 2 seconds ago

Mostly Cloudy
Mostly Cloudy
87.8 °F
Feels Like 106 °F
N
7.6
Wind Variable Wind from North
Gusts 9.8 mph

Today
High -- | Low -- °F
--% Chance of Precip.
Yesterday
High -- | Low -- °F
Precip. -- in
Pressure 29.86 in
Visibility 8.0 miles
Clouds Scattered Clouds 1500 ft
Mostly Cloudy 25000 ft
Heat Index 106 °F
Dew Point 81 °F
Humidity 80%
Rainfall 0.00 in
Snow Depth Not available.
6:30 AM 7:07 PM
Waning Crescent, 21% visible
METAR MMCZ 272046Z 06007KT 8SM SCT015TCU BKN250 30/25 A2983 RMK SLP110 57011 952 8/208 SC CB N
Pressure 29.86 in
Visibility 8.0 miles
Clouds Scattered Clouds 1500 ft
Mostly Cloudy 25000 ft
Heat Index 106 °F
Dew Point 81 °F
Humidity 80%
Rainfall 0.00 in
Snow Depth Not available.
6:30 AM 7:07 PM
Waning Crescent, 21% visible
METAR MMCZ 272046Z 06007KT 8SM SCT015TCU BKN250 30/25 A2983 RMK SLP110 57011 952 8/208 SC CB N

10-Day Weather Forecast

No radar image for this location.
×

Almanac

Astronomy

Aug. 27, 2016 Rise Set
Actual Time
Civil Twilight
Nautical Twilight
Astronomical Twilight
Moon
Length of Visible Light
Length of Day
Tomorrow will be .
, % of the Moon is Illuminated

Today's Extremes

Country Highs Country Lows

Community

WunderPhotos

Upload Photos

1,935,455 photos uploaded!

WunderBlog® & News

Nearby

Air Quality

  Air Quality AQ Index Pollutant
Not available.

Snow Depth

Station Depth Elevation

Earthquake Activity

City Distance Mag. Time & Date
Minimum magnitude displayed is 2.5.

Coastal Water Temperatures

Place Temperature

Stations

Nearby Weather Stations

Station Location Temp. Windchill Dew Point Humidity Wind Precip. Elev Updated Type